Capitol Logistics 939

Operating for DHL



LROP
Henri Coand? International Airport
Bucharest, RO
EDDK
Cologne Bonn Airport
Cologne, DE

Activity Log

Date Flight Route Aircraft Duration
No Flights Yet

Route Details

Aircraft Information
Group: European Fleet
Types: A30F,A31F,B738
Route Data
Demand: L
Distance: 851nm
Duration: 2h 50m
Recm'd Route: SOKR1K SOKRU BUDOP PATAK ODNEM OKG L984 ABERU LONLI L984 SULUS L604 DEMAB T842 EBANA T841 ERNEP ERNE1V
Origin Wx: LROP 272230Z 25004KT CAVOK 17/12 Q1013 NOSIG
Dest. Wx: EDDK 272220Z AUTO 31005KT 280V340 CAVOK 10/04 Q1023 NOSIG
Notes:

Financial History
Total Freight: 0lbs
Average Load: 0lbs/flt
Fuel Used: 0lbs
Avg. Fuel Used: 0lbs/flt
Fuel Expense: $0
Avg. Fuel Expense: $0
Avg. Fuel Cost: $0/lbs
Total Gross Income: $0
Pilot Pay: $0
Total Expenses: $0
Total Revenue: $0
Average Revenue: $0